createdAt,value
2018-12-15T00:01:27.931Z,60.73
2018-12-15T00:04:02.135Z,60.84
2018-12-15T00:06:35.607Z,60.91
2018-12-15T00:09:10.677Z,61.02
2018-12-15T00:11:46.689Z,60.73
2018-12-15T00:14:19.412Z,60.61
2018-12-15T00:16:52.198Z,60.24
2018-12-15T00:19:25.162Z,60.18
2018-12-15T00:22:00.839Z,59.67
2018-12-15T00:24:33.617Z,59.74
2018-12-15T00:27:06.989Z,59.82
2018-12-15T00:29:39.974Z,59.68
2018-12-15T00:32:12.468Z,59.67
2018-12-15T00:34:45.636Z,59.70
2018-12-15T00:37:18.327Z,59.74
2018-12-15T00:39:51.067Z,59.94
2018-12-15T00:42:31.769Z,59.90
2018-12-15T00:45:08.267Z,59.87
2018-12-15T00:47:40.798Z,59.93
2018-12-15T00:50:16.301Z,60.24
2018-12-15T00:52:48.964Z,60.34
2018-12-15T00:55:21.943Z,60.44
2018-12-15T00:57:55.675Z,60.47
2018-12-15T01:00:28.096Z,60.46
2018-12-15T01:03:00.728Z,60.49
2018-12-15T01:05:36.789Z,60.51
2018-12-15T01:08:10.749Z,60.69
2018-12-15T01:10:46.263Z,60.81
2018-12-15T01:13:20.425Z,60.95
2018-12-15T01:15:54.662Z,60.86
2018-12-15T01:18:27.167Z,60.86
2018-12-15T01:21:01.222Z,60.85
2018-12-15T01:23:33.808Z,60.85
2018-12-15T01:26:08.120Z,61.05
2018-12-15T01:28:43.225Z,61.15
2018-12-15T01:31:15.775Z,61.16
2018-12-15T01:33:48.376Z,61.24
2018-12-15T01:36:21.363Z,61.30
2018-12-15T01:38:53.973Z,61.49
2018-12-15T01:41:27.581Z,61.45
2018-12-15T01:44:00.886Z,61.30
2018-12-15T01:46:33.526Z,61.02
2018-12-15T01:49:06.154Z,60.99
2018-12-15T01:51:39.266Z,61.05
2018-12-15T01:54:11.875Z,61.17
2018-12-15T01:56:44.509Z,61.30
2018-12-15T01:59:19.115Z,61.45
2018-12-15T02:01:51.852Z,61.50
2018-12-15T02:04:24.391Z,61.48
2018-12-15T02:06:57.408Z,61.58
2018-12-15T02:09:31.363Z,61.74
2018-12-15T02:12:04.016Z,61.81
2018-12-15T02:14:36.974Z,61.98
2018-12-15T02:17:09.452Z,61.99
2018-12-15T02:19:42.048Z,62.08
2018-12-15T02:22:16.011Z,62.25
2018-12-15T02:24:48.876Z,62.31
2018-12-15T02:27:21.593Z,62.33
2018-12-15T02:29:54.843Z,62.44
2018-12-15T02:32:28.238Z,62.09
2018-12-15T02:35:01.586Z,62.04
2018-12-15T02:37:36.553Z,61.99
2018-12-15T02:40:09.185Z,62.07
2018-12-15T02:42:41.767Z,62.13
2018-12-15T02:45:17.283Z,62.18
2018-12-15T02:47:49.988Z,62.21
2018-12-15T02:50:24.689Z,62.14
2018-12-15T02:52:57.630Z,62.16
2018-12-15T02:55:31.191Z,62.26
2018-12-15T02:58:04.241Z,62.34
2018-12-15T03:00:37.020Z,62.10
2018-12-15T03:03:09.791Z,61.84
2018-12-15T03:05:42.877Z,61.75
2018-12-15T03:08:15.525Z,61.76
2018-12-15T03:10:48.112Z,61.94
2018-12-15T03:13:21.394Z,61.80
2018-12-15T03:15:54.080Z,61.57
2018-12-15T03:18:26.675Z,61.78
2018-12-15T03:21:03.150Z,62.11
2018-12-15T03:23:35.880Z,62.16
2018-12-15T03:26:08.456Z,62.49
2018-12-15T03:28:41.529Z,62.50
2018-12-15T03:31:13.995Z,62.60
2018-12-15T03:33:46.670Z,62.46
2018-12-15T03:36:19.790Z,62.33
2018-12-15T03:38:52.534Z,62.32
2018-12-15T03:41:25.248Z,61.96
2018-12-15T03:43:58.425Z,61.40
2018-12-15T03:46:30.929Z,61.40
2018-12-15T03:49:03.593Z,61.43
2018-12-15T03:51:37.463Z,61.57
2018-12-15T03:54:10.295Z,61.54
2018-12-15T03:56:43.754Z,61.58
2018-12-15T03:59:23.976Z,61.59
2018-12-15T04:01:56.630Z,61.55
2018-12-15T04:04:30.577Z,61.61
2018-12-15T04:07:03.495Z,61.50
2018-12-15T04:09:36.256Z,61.23
2018-12-15T04:12:08.834Z,61.34
2018-12-15T04:14:43.856Z,61.45
2018-12-15T04:17:17.289Z,61.60
2018-12-15T04:19:50.255Z,61.56
2018-12-15T04:22:23.482Z,61.51
2018-12-15T04:24:56.148Z,61.44
2018-12-15T04:27:28.815Z,61.08
2018-12-15T04:30:09.124Z,61.00
2018-12-15T04:32:45.382Z,61.04
2018-12-15T04:35:18.444Z,61.17
2018-12-15T04:37:51.354Z,61.22
2018-12-15T04:40:24.428Z,61.38
2018-12-15T04:42:58.032Z,61.41
2018-12-15T04:45:32.048Z,60.70
2018-12-15T04:48:10.827Z,60.67
2018-12-15T04:50:44.276Z,60.53
2018-12-15T04:53:17.082Z,60.88
2018-12-15T04:55:50.009Z,60.73
2018-12-15T04:58:25.345Z,60.89
2018-12-15T05:01:00.753Z,61.53
2018-12-15T05:03:33.926Z,61.35
2018-12-15T05:06:06.659Z,61.24
2018-12-15T05:08:40.249Z,61.23
2018-12-15T05:11:12.942Z,61.46
2018-12-15T05:13:46.155Z,61.49
2018-12-15T05:16:20.051Z,61.43
2018-12-15T05:18:52.693Z,61.48
2018-12-15T05:21:25.385Z,61.46
2018-12-15T05:23:58.299Z,61.79
2018-12-15T05:26:31.443Z,61.88
2018-12-15T05:29:05.456Z,61.78
2018-12-15T05:31:38.534Z,61.57
2018-12-15T05:34:11.145Z,61.66
2018-12-15T05:36:44.081Z,61.45
2018-12-15T05:39:17.220Z,61.46
2018-12-15T05:41:50.036Z,61.81
2018-12-15T05:44:22.631Z,61.81
2018-12-15T05:46:59.777Z,61.76
2018-12-15T05:49:36.092Z,61.74
2018-12-15T05:52:09.012Z,61.63
2018-12-15T05:54:41.977Z,61.44
2018-12-15T05:57:14.812Z,61.45
2018-12-15T05:59:47.364Z,61.51
2018-12-15T06:02:21.041Z,61.51
2018-12-15T06:04:54.741Z,61.64
2018-12-15T06:07:27.540Z,61.77
2018-12-15T06:10:02.802Z,61.95
2018-12-15T06:12:37.989Z,61.82
2018-12-15T06:15:13.640Z,61.84
2018-12-15T06:17:46.857Z,61.96
2018-12-15T06:20:20.093Z,61.97
2018-12-15T06:22:52.832Z,61.87
2018-12-15T06:25:26.652Z,61.86
2018-12-15T06:27:59.408Z,62.07
2018-12-15T06:30:32.024Z,62.23
2018-12-15T06:33:04.952Z,62.20
2018-12-15T06:35:37.572Z,62.45
2018-12-15T06:38:10.108Z,62.17
2018-12-15T06:40:43.189Z,62.22
2018-12-15T06:43:16.233Z,62.23
2018-12-15T06:45:49.163Z,62.35
2018-12-15T06:48:22.105Z,62.44
2018-12-15T06:50:56.244Z,62.59
2018-12-15T06:53:28.837Z,62.76
2018-12-15T06:56:03.847Z,62.79
2018-12-15T06:58:37.736Z,62.84
2018-12-15T07:01:10.389Z,63.02
2018-12-15T07:03:43.417Z,63.12
2018-12-15T07:06:16.201Z,63.39
2018-12-15T07:08:49.255Z,62.44
2018-12-15T07:11:22.281Z,62.40
2018-12-15T07:13:55.093Z,62.34
2018-12-15T07:16:27.889Z,62.46
2018-12-15T07:19:00.737Z,62.56
2018-12-15T07:21:35.087Z,62.77
2018-12-15T07:24:07.798Z,62.59
2018-12-15T07:26:44.020Z,62.53
2018-12-15T07:29:17.055Z,62.48
2018-12-15T07:31:51.413Z,62.46
2018-12-15T07:34:27.467Z,62.54
2018-12-15T07:37:00.099Z,62.48
2018-12-15T07:39:33.092Z,62.83
2018-12-15T07:42:06.699Z,62.89
2018-12-15T07:44:39.644Z,62.89
2018-12-15T07:47:14.329Z,63.16
2018-12-15T07:49:47.038Z,62.70
2018-12-15T07:52:20.168Z,62.98
2018-12-15T07:54:53.352Z,63.04
2018-12-15T07:57:26.751Z,63.20
2018-12-15T07:59:59.994Z,63.15
2018-12-15T08:02:34.248Z,63.27
2018-12-15T08:05:07.578Z,63.43
2018-12-15T08:07:40.772Z,63.75
2018-12-15T08:10:22.314Z,63.71
2018-12-15T08:12:56.899Z,63.89
2018-12-15T08:15:31.669Z,63.92
2018-12-15T08:18:04.421Z,64.07
2018-12-15T08:20:37.240Z,64.27
2018-12-15T08:23:11.228Z,64.10
2018-12-15T08:25:45.455Z,64.20
2018-12-15T08:28:18.232Z,64.31
2018-12-15T08:30:51.600Z,64.08
2018-12-15T08:33:24.787Z,64.10
2018-12-15T08:36:00.947Z,64.02
2018-12-15T08:38:34.044Z,64.06
2018-12-15T08:41:07.020Z,64.44
2018-12-15T08:43:41.103Z,64.48
2018-12-15T08:46:15.679Z,64.36
2018-12-15T08:48:48.204Z,64.09
2018-12-15T08:51:22.028Z,64.19
2018-12-15T08:53:56.275Z,64.33
2018-12-15T08:56:30.033Z,64.33
2018-12-15T08:59:04.160Z,64.45
2018-12-15T09:01:37.639Z,64.65
2018-12-15T09:04:11.172Z,64.63
2018-12-15T09:06:43.873Z,64.58
2018-12-15T09:09:18.360Z,64.64
2018-12-15T09:11:51.070Z,64.52
2018-12-15T09:14:23.829Z,64.54
2018-12-15T09:16:57.827Z,64.49
2018-12-15T09:19:30.476Z,64.16
2018-12-15T09:22:03.218Z,63.89
2018-12-15T09:24:36.159Z,64.03
2018-12-15T09:27:10.142Z,64.03
2018-12-15T09:29:43.589Z,64.04
2018-12-15T09:32:18.012Z,64.30
2018-12-15T09:34:50.653Z,64.20
2018-12-15T09:37:25.152Z,63.93
2018-12-15T09:39:58.959Z,64.02
2018-12-15T09:42:34.223Z,63.99
2018-12-15T09:45:08.955Z,63.94
2018-12-15T09:47:42.283Z,63.76
2018-12-15T09:50:14.891Z,63.90
2018-12-15T09:52:48.928Z,63.79
2018-12-15T09:55:21.721Z,63.72
2018-12-15T09:57:57.776Z,63.40
2018-12-15T10:00:31.309Z,63.33
2018-12-15T10:03:08.480Z,63.32
2018-12-15T10:05:41.204Z,63.49
2018-12-15T10:08:16.731Z,63.26
2018-12-15T10:10:50.944Z,63.77
2018-12-15T10:13:23.647Z,63.56
2018-12-15T10:15:57.301Z,63.85
2018-12-15T10:18:30.586Z,63.88
2018-12-15T10:21:04.688Z,63.95
2018-12-15T10:23:39.111Z,63.80
2018-12-15T10:26:12.789Z,63.82
2018-12-15T10:28:47.632Z,63.85
2018-12-15T10:31:26.863Z,63.85
2018-12-15T10:34:01.499Z,63.74
2018-12-15T10:36:37.458Z,63.69
2018-12-15T10:39:11.881Z,63.74
2018-12-15T10:41:45.150Z,63.67
2018-12-15T10:44:21.363Z,63.85
2018-12-15T10:46:54.016Z,64.14
2018-12-15T10:49:30.673Z,63.80
2018-12-15T10:52:09.464Z,63.75
2018-12-15T10:54:42.836Z,63.92
2018-12-15T10:57:16.608Z,64.21
2018-12-15T10:59:53.957Z,64.29
2018-12-15T11:02:27.099Z,64.22
2018-12-15T11:05:01.225Z,64.72
2018-12-15T11:07:35.485Z,64.66
2018-12-15T11:10:11.498Z,64.15
2018-12-15T11:12:50.296Z,64.35
2018-12-15T11:15:23.364Z,64.39
2018-12-15T11:17:58.293Z,64.30
2018-12-15T11:20:31.196Z,64.38
2018-12-15T11:23:03.869Z,64.25
2018-12-15T11:25:39.445Z,64.10
2018-12-15T11:28:30.222Z,63.94
2018-12-15T11:31:04.960Z,64.23
2018-12-15T11:33:39.250Z,64.18
2018-12-15T11:36:12.057Z,64.27
2018-12-15T11:38:44.800Z,63.88
2018-12-15T11:41:18.657Z,63.84
2018-12-15T11:43:52.313Z,63.61
2018-12-15T11:46:25.035Z,63.58
2018-12-15T11:49:01.586Z,63.01
2018-12-15T11:51:36.615Z,62.80
2018-12-15T11:54:10.082Z,63.13
2018-12-15T11:56:46.453Z,63.22
2018-12-15T11:59:20.515Z,63.11
2018-12-15T12:01:55.634Z,62.95
2018-12-15T12:04:29.099Z,62.67
2018-12-15T12:07:04.273Z,62.45
2018-12-15T12:09:37.450Z,62.53
2018-12-15T12:12:10.520Z,62.76
2018-12-15T12:14:45.076Z,62.68
2018-12-15T12:17:19.238Z,62.20
2018-12-15T12:19:51.989Z,62.36
2018-12-15T12:22:24.638Z,62.12
2018-12-15T12:25:03.398Z,62.26
2018-12-15T12:27:36.764Z,62.31
2018-12-15T12:30:14.969Z,62.21
2018-12-15T12:32:50.579Z,61.65
2018-12-15T12:35:25.705Z,61.72
2018-12-15T12:38:01.192Z,61.20
2018-12-15T12:40:33.945Z,61.31
2018-12-15T12:43:06.809Z,61.03
2018-12-15T12:45:39.735Z,61.26
2018-12-15T12:48:13.248Z,60.79
2018-12-15T12:50:45.876Z,60.61
2018-12-15T12:53:19.911Z,60.82
2018-12-15T12:55:52.771Z,61.00
2018-12-15T12:58:25.658Z,60.87
2018-12-15T13:00:58.852Z,61.21
2018-12-15T13:03:33.191Z,61.07
2018-12-15T13:06:06.598Z,60.84
2018-12-15T13:08:40.579Z,60.39
2018-12-15T13:11:14.383Z,60.53
2018-12-15T13:13:50.828Z,60.67
2018-12-15T13:16:24.481Z,60.97
2018-12-15T13:18:57.185Z,61.04
2018-12-15T13:21:30.537Z,61.07
2018-12-15T13:24:03.699Z,61.05
2018-12-15T13:26:40.850Z,61.09
2018-12-15T13:29:19.843Z,61.18
2018-12-15T13:31:52.464Z,61.31
2018-12-15T13:34:25.146Z,61.20
2018-12-15T13:37:01.156Z,61.08
2018-12-15T13:39:39.382Z,61.15
2018-12-15T13:42:13.036Z,61.28
2018-12-15T13:44:53.595Z,60.75
2018-12-15T13:47:26.873Z,60.98
2018-12-15T13:50:00.471Z,60.87
2018-12-15T13:52:33.674Z,61.21
2018-12-15T13:55:07.449Z,61.08
2018-12-15T13:57:43.860Z,61.15
2018-12-15T14:00:20.030Z,61.13
2018-12-15T14:02:52.951Z,61.32
2018-12-15T14:05:26.680Z,61.63
2018-12-15T14:08:01.798Z,61.83
2018-12-15T14:10:37.606Z,61.67
2018-12-15T14:13:12.989Z,61.65
2018-12-15T14:15:47.369Z,61.61
2018-12-15T14:18:22.153Z,61.52
2018-12-15T14:20:54.945Z,61.73
2018-12-15T14:23:27.610Z,61.40
2018-12-15T14:26:04.176Z,61.08
2018-12-15T14:28:39.239Z,61.21
2018-12-15T14:31:12.159Z,61.56
2018-12-15T14:33:48.359Z,61.93
2018-12-15T14:36:25.641Z,61.98
2018-12-15T14:38:59.096Z,61.81
2018-12-15T14:41:34.940Z,61.90
2018-12-15T14:44:07.727Z,61.96
2018-12-15T14:46:43.361Z,61.95
2018-12-15T14:49:16.549Z,62.00
2018-12-15T14:51:50.593Z,61.71
2018-12-15T14:54:23.326Z,62.17
2018-12-15T14:57:00.505Z,62.56
2018-12-15T14:59:34.409Z,62.76
2018-12-15T15:02:07.926Z,62.76
2018-12-15T15:04:41.798Z,62.97
2018-12-15T15:07:16.935Z,62.93
2018-12-15T15:09:54.345Z,63.07
2018-12-15T15:12:28.778Z,63.26
2018-12-15T15:15:03.938Z,63.40
2018-12-15T15:17:39.492Z,63.41
2018-12-15T15:20:13.639Z,63.68
2018-12-15T15:22:46.714Z,63.82
2018-12-15T15:25:19.788Z,64.15
2018-12-15T15:27:54.636Z,64.02
2018-12-15T15:30:29.249Z,64.27
2018-12-15T15:33:02.552Z,64.33
2018-12-15T15:35:37.619Z,64.34
2018-12-15T15:38:10.538Z,64.57
2018-12-15T15:40:43.931Z,65.23
2018-12-15T15:43:22.321Z,65.29
2018-12-15T15:45:56.069Z,65.23
2018-12-15T15:48:29.641Z,65.15
2018-12-15T15:51:03.379Z,65.28
2018-12-15T15:53:36.423Z,65.74
2018-12-15T15:56:11.011Z,66.27
2018-12-15T15:58:44.955Z,66.07
2018-12-15T16:01:19.567Z,65.80
2018-12-15T16:03:52.910Z,66.01
2018-12-15T16:06:26.890Z,66.12
2018-12-15T16:09:04.381Z,66.44
2018-12-15T16:11:40.459Z,66.67
2018-12-15T16:14:15.718Z,67.30
2018-12-15T16:16:49.061Z,67.49
2018-12-15T16:19:23.526Z,67.85
2018-12-15T16:21:57.712Z,67.94
2018-12-15T16:24:30.858Z,67.43
2018-12-15T16:27:03.656Z,67.38
2018-12-15T16:29:37.949Z,67.43
2018-12-15T16:32:13.538Z,67.39
2018-12-15T16:34:47.593Z,67.56
2018-12-15T16:37:24.317Z,67.70
2018-12-15T16:39:57.982Z,67.59
2018-12-15T16:42:33.867Z,67.53
2018-12-15T16:45:14.832Z,67.48
2018-12-15T16:47:48.984Z,67.46
2018-12-15T16:50:22.043Z,67.42
2018-12-15T16:52:58.476Z,67.16
2018-12-15T16:55:31.720Z,66.90
2018-12-15T16:58:05.790Z,66.84
2018-12-15T17:00:40.484Z,66.89
2018-12-15T17:03:13.753Z,66.47
2018-12-15T17:05:47.941Z,66.54
2018-12-15T17:08:20.944Z,69.25
2018-12-15T17:10:54.452Z,66.87
2018-12-15T17:13:28.777Z,64.71
2018-12-15T17:16:01.600Z,62.97
2018-12-15T17:18:35.978Z,63.73
2018-12-15T17:21:09.176Z,64.62
2018-12-15T17:23:43.276Z,65.48
2018-12-15T17:26:17.303Z,65.89
2018-12-15T17:28:52.012Z,66.19
2018-12-15T17:31:27.852Z,66.46
2018-12-15T17:34:04.229Z,67.14
2018-12-15T17:36:41.850Z,67.13
2018-12-15T17:39:16.368Z,66.81
2018-12-15T17:41:53.863Z,66.84
2018-12-15T17:44:29.461Z,67.00
2018-12-15T17:47:03.892Z,67.25
2018-12-15T17:49:37.853Z,67.89
2018-12-15T17:52:10.771Z,67.94
2018-12-15T17:54:43.679Z,68.52
2018-12-15T17:57:19.342Z,68.64
2018-12-15T17:59:58.387Z,68.90
2018-12-15T18:02:32.351Z,68.98
2018-12-15T18:05:06.202Z,69.42
2018-12-15T18:07:39.091Z,69.22
2018-12-15T18:10:12.820Z,69.74
2018-12-15T18:12:46.046Z,69.44
2018-12-15T18:15:23.967Z,69.45
2018-12-15T18:18:00.470Z,69.51
2018-12-15T18:20:38.827Z,72.40
2018-12-15T18:23:12.246Z,69.24
2018-12-15T18:25:47.075Z,68.80
2018-12-15T18:28:21.431Z,69.13
2018-12-15T18:30:55.607Z,69.51
2018-12-15T18:33:29.732Z,69.95
2018-12-15T18:36:03.728Z,69.73
2018-12-15T18:38:36.411Z,69.60
2018-12-15T18:41:09.668Z,69.75
2018-12-15T18:43:42.412Z,69.93
2018-12-15T18:46:16.010Z,70.47
2018-12-15T18:48:55.092Z,70.49
2018-12-15T18:51:35.533Z,70.60
2018-12-15T18:54:20.025Z,70.53
2018-12-15T18:56:53.555Z,70.55
2018-12-15T18:59:27.502Z,70.24
2018-12-15T19:02:03.500Z,69.94
2018-12-15T19:04:39.100Z,69.75
2018-12-15T19:07:12.346Z,69.99
2018-12-15T19:09:49.084Z,70.05
2018-12-15T19:12:36.807Z,70.19
2018-12-15T19:15:19.703Z,70.57
2018-12-15T19:17:57.562Z,70.42
2018-12-15T19:20:31.768Z,70.40
2018-12-15T19:23:06.035Z,70.76
2018-12-15T19:25:41.759Z,70.88
2018-12-15T19:28:16.647Z,71.12
2018-12-15T19:30:49.758Z,70.81
2018-12-15T19:33:22.639Z,70.66
2018-12-15T19:35:55.800Z,70.08
2018-12-15T19:38:30.826Z,69.88
2018-12-15T19:41:04.683Z,70.10
2018-12-15T19:43:39.041Z,70.17
2018-12-15T19:46:26.302Z,69.91
2018-12-15T19:49:02.170Z,69.86
2018-12-15T19:51:38.046Z,69.91
2018-12-15T19:54:13.106Z,70.04
2018-12-15T19:56:47.398Z,70.30
2018-12-15T19:59:20.217Z,70.24
2018-12-15T20:01:54.782Z,70.15
2018-12-15T20:04:29.872Z,69.96
2018-12-15T20:07:06.998Z,69.94
2018-12-15T20:09:41.857Z,69.97
2018-12-15T20:12:16.346Z,69.87
2018-12-15T20:14:49.737Z,69.86
2018-12-15T20:17:24.717Z,69.94
2018-12-15T20:19:57.640Z,69.89
2018-12-15T20:22:32.152Z,69.79
2018-12-15T20:25:06.547Z,69.73
2018-12-15T20:27:39.238Z,69.67
2018-12-15T20:30:14.612Z,69.47
2018-12-15T20:32:50.954Z,69.49
2018-12-15T20:35:23.855Z,69.40
2018-12-15T20:37:59.583Z,69.35
2018-12-15T20:40:34.180Z,69.64
2018-12-15T20:43:08.404Z,69.82
2018-12-15T20:45:49.106Z,69.81
2018-12-15T20:48:25.263Z,69.85
2018-12-15T20:50:58.644Z,69.83
2018-12-15T20:53:39.755Z,69.66
2018-12-15T20:56:12.932Z,69.78
2018-12-15T20:58:48.548Z,69.82
2018-12-15T21:01:23.835Z,69.61
2018-12-15T21:04:01.089Z,69.40
2018-12-15T21:06:38.200Z,69.28
2018-12-15T21:09:15.734Z,69.30
2018-12-15T21:11:49.725Z,69.22
2018-12-15T21:14:27.791Z,69.26
2018-12-15T21:17:00.702Z,69.35
2018-12-15T21:19:37.517Z,69.25
2018-12-15T21:22:15.567Z,69.00
2018-12-15T21:24:51.511Z,68.97
2018-12-15T21:27:25.817Z,69.04
2018-12-15T21:30:03.645Z,69.03
2018-12-15T21:32:36.346Z,68.81
2018-12-15T21:35:11.057Z,68.61
2018-12-15T21:37:45.220Z,68.55
2018-12-15T21:40:19.029Z,68.79
2018-12-15T21:42:53.017Z,68.81
2018-12-15T21:45:27.330Z,68.78
2018-12-15T21:48:00.554Z,68.67
2018-12-15T21:50:42.294Z,68.46
2018-12-15T21:53:16.773Z,68.45
2018-12-15T21:55:50.456Z,68.04
2018-12-15T21:58:24.360Z,68.03
2018-12-15T22:00:58.187Z,67.68
2018-12-15T22:03:32.674Z,67.58
2018-12-15T22:06:06.917Z,67.59
2018-12-15T22:08:42.061Z,67.51
2018-12-15T22:11:15.942Z,67.38
2018-12-15T22:13:49.254Z,67.24
2018-12-15T22:16:25.393Z,67.30
2018-12-15T22:19:00.209Z,66.89
2018-12-15T22:21:37.277Z,66.84
2018-12-15T22:24:10.093Z,66.94
2018-12-15T22:26:43.231Z,66.90
2018-12-15T22:29:17.028Z,66.82
2018-12-15T22:31:51.596Z,66.57
2018-12-15T22:34:26.258Z,66.51
2018-12-15T22:36:58.809Z,66.40
2018-12-15T22:39:32.754Z,66.53
2018-12-15T22:42:09.398Z,66.38
2018-12-15T22:44:43.127Z,66.21
2018-12-15T22:47:16.118Z,66.10
2018-12-15T22:49:52.502Z,66.22
2018-12-15T22:52:26.126Z,66.23
2018-12-15T22:55:01.529Z,66.16
2018-12-15T22:57:37.701Z,66.13
2018-12-15T23:00:15.655Z,66.15
2018-12-15T23:02:51.141Z,65.64
2018-12-15T23:05:27.951Z,65.71
2018-12-15T23:08:06.294Z,65.67
2018-12-15T23:10:39.145Z,65.76
2018-12-15T23:13:12.232Z,65.51
2018-12-15T23:15:49.359Z,65.21
2018-12-15T23:18:23.006Z,64.84
2018-12-15T23:20:58.105Z,64.79
2018-12-15T23:23:31.658Z,64.85
2018-12-15T23:26:06.727Z,65.05
2018-12-15T23:28:40.917Z,64.51
2018-12-15T23:31:14.172Z,64.53
2018-12-15T23:33:47.336Z,64.64
2018-12-15T23:36:23.082Z,64.76
2018-12-15T23:38:55.935Z,64.58
2018-12-15T23:41:28.793Z,64.55
2018-12-15T23:44:03.257Z,64.50
2018-12-15T23:46:35.880Z,64.59
2018-12-15T23:49:10.879Z,64.55
2018-12-15T23:51:44.936Z,64.37
2018-12-15T23:54:19.961Z,64.33
2018-12-15T23:56:53.281Z,64.20
2018-12-15T23:59:26.405Z,64.51
